sensor_id;sensor_type;location;lat;lon;timestamp;P1;durP1;ratioP1;P2;durP2;ratioP2
44854;SDS011;30591;48.228;16.398;2023-08-08T00:00:21;0.10;;;0.10;;
44854;SDS011;30591;48.228;16.398;2023-08-08T00:02:48;0.10;;;0.10;;
44854;SDS011;30591;48.228;16.398;2023-08-08T00:05:15;0.10;;;0.10;;
44854;SDS011;30591;48.228;16.398;2023-08-08T00:07:43;0.40;;;0.40;;
44854;SDS011;30591;48.228;16.398;2023-08-08T00:10:10;0.10;;;0.10;;
44854;SDS011;30591;48.228;16.398;2023-08-08T00:12:37;0.10;;;0.10;;
44854;SDS011;30591;48.228;16.398;2023-08-08T00:15:04;0.10;;;0.10;;
44854;SDS011;30591;48.228;16.398;2023-08-08T00:17:32;0.10;;;0.10;;
44854;SDS011;30591;48.228;16.398;2023-08-08T00:20:00;0.10;;;0.10;;
44854;SDS011;30591;48.228;16.398;2023-08-08T00:22:27;0.10;;;0.10;;
44854;SDS011;30591;48.228;16.398;2023-08-08T00:24:56;0.20;;;0.20;;
44854;SDS011;30591;48.228;16.398;2023-08-08T00:27:23;0.10;;;0.10;;
44854;SDS011;30591;48.228;16.398;2023-08-08T00:29:51;0.10;;;0.10;;
44854;SDS011;30591;48.228;16.398;2023-08-08T00:32:22;0.20;;;0.20;;
44854;SDS011;30591;48.228;16.398;2023-08-08T00:34:49;0.10;;;0.10;;
44854;SDS011;30591;48.228;16.398;2023-08-08T00:37:16;0.10;;;0.10;;
44854;SDS011;30591;48.228;16.398;2023-08-08T00:39:44;0.10;;;0.10;;
44854;SDS011;30591;48.228;16.398;2023-08-08T00:42:12;0.10;;;0.10;;
44854;SDS011;30591;48.228;16.398;2023-08-08T00:44:40;0.10;;;0.10;;
44854;SDS011;30591;48.228;16.398;2023-08-08T00:47:10;0.20;;;0.20;;
44854;SDS011;30591;48.228;16.398;2023-08-08T00:49:38;0.10;;;0.10;;
44854;SDS011;30591;48.228;16.398;2023-08-08T00:52:07;0.20;;;0.20;;
44854;SDS011;30591;48.228;16.398;2023-08-08T00:54:34;0.10;;;0.10;;
44854;SDS011;30591;48.228;16.398;2023-08-08T00:57:02;0.10;;;0.10;;
44854;SDS011;30591;48.228;16.398;2023-08-08T00:59:29;0.10;;;0.10;;
44854;SDS011;30591;48.228;16.398;2023-08-08T01:01:57;0.10;;;0.10;;
44854;SDS011;30591;48.228;16.398;2023-08-08T01:04:25;0.10;;;0.10;;
44854;SDS011;30591;48.228;16.398;2023-08-08T01:10:05;0.10;;;0.10;;
44854;SDS011;30591;48.228;16.398;2023-08-08T01:12:39;0.10;;;0.10;;
44854;SDS011;30591;48.228;16.398;2023-08-08T01:15:11;0.10;;;0.10;;
44854;SDS011;30591;48.228;16.398;2023-08-08T01:17:41;0.10;;;0.10;;
44854;SDS011;30591;48.228;16.398;2023-08-08T01:20:09;0.10;;;0.10;;
44854;SDS011;30591;48.228;16.398;2023-08-08T01:22:55;0.10;;;0.10;;
44854;SDS011;30591;48.228;16.398;2023-08-08T01:25:43;0.10;;;0.10;;
44854;SDS011;30591;48.228;16.398;2023-08-08T01:28:12;0.10;;;0.10;;
44854;SDS011;30591;48.228;16.398;2023-08-08T01:30:40;0.10;;;0.10;;
44854;SDS011;30591;48.228;16.398;2023-08-08T01:33:07;0.10;;;0.10;;
44854;SDS011;30591;48.228;16.398;2023-08-08T01:35:37;0.10;;;0.10;;
44854;SDS011;30591;48.228;16.398;2023-08-08T01:38:11;0.10;;;0.10;;
44854;SDS011;30591;48.228;16.398;2023-08-08T01:41:04;0.10;;;0.10;;
44854;SDS011;30591;48.228;16.398;2023-08-08T01:43:34;0.10;;;0.10;;
44854;SDS011;30591;48.228;16.398;2023-08-08T01:46:04;0.10;;;0.10;;
44854;SDS011;30591;48.228;16.398;2023-08-08T01:48:33;0.10;;;0.10;;
44854;SDS011;30591;48.228;16.398;2023-08-08T01:51:00;0.10;;;0.10;;
44854;SDS011;30591;48.228;16.398;2023-08-08T01:53:27;0.20;;;0.20;;
44854;SDS011;30591;48.228;16.398;2023-08-08T01:55:55;0.10;;;0.10;;
44854;SDS011;30591;48.228;16.398;2023-08-08T01:58:22;0.20;;;0.20;;
44854;SDS011;30591;48.228;16.398;2023-08-08T02:00:49;0.10;;;0.10;;
44854;SDS011;30591;48.228;16.398;2023-08-08T02:03:16;0.10;;;0.10;;
44854;SDS011;30591;48.228;16.398;2023-08-08T02:05:44;0.10;;;0.10;;
44854;SDS011;30591;48.228;16.398;2023-08-08T02:08:11;0.10;;;0.10;;
44854;SDS011;30591;48.228;16.398;2023-08-08T02:10:39;0.20;;;0.20;;
44854;SDS011;30591;48.228;16.398;2023-08-08T02:13:07;0.10;;;0.10;;
44854;SDS011;30591;48.228;16.398;2023-08-08T02:15:34;0.20;;;0.20;;
44854;SDS011;30591;48.228;16.398;2023-08-08T02:18:02;0.10;;;0.10;;
44854;SDS011;30591;48.228;16.398;2023-08-08T02:20:30;0.10;;;0.10;;
44854;SDS011;30591;48.228;16.398;2023-08-08T02:22:57;0.10;;;0.10;;
44854;SDS011;30591;48.228;16.398;2023-08-08T02:25:25;0.10;;;0.10;;
44854;SDS011;30591;48.228;16.398;2023-08-08T02:27:52;0.10;;;0.10;;
44854;SDS011;30591;48.228;16.398;2023-08-08T02:30:19;0.10;;;0.10;;
44854;SDS011;30591;48.228;16.398;2023-08-08T02:32:47;0.10;;;0.10;;
44854;SDS011;30591;48.228;16.398;2023-08-08T02:35:15;0.10;;;0.10;;
44854;SDS011;30591;48.228;16.398;2023-08-08T02:37:42;0.10;;;0.10;;
44854;SDS011;30591;48.228;16.398;2023-08-08T02:40:09;0.10;;;0.10;;
44854;SDS011;30591;48.228;16.398;2023-08-08T02:42:37;0.10;;;0.10;;
44854;SDS011;30591;48.228;16.398;2023-08-08T02:45:06;0.10;;;0.10;;
44854;SDS011;30591;48.228;16.398;2023-08-08T02:47:34;0.10;;;0.10;;
44854;SDS011;30591;48.228;16.398;2023-08-08T02:50:01;0.10;;;0.10;;
44854;SDS011;30591;48.228;16.398;2023-08-08T02:52:29;0.10;;;0.10;;
44854;SDS011;30591;48.228;16.398;2023-08-08T02:54:56;0.10;;;0.10;;
44854;SDS011;30591;48.228;16.398;2023-08-08T02:57:24;0.10;;;0.10;;
44854;SDS011;30591;48.228;16.398;2023-08-08T02:59:54;0.10;;;0.10;;
44854;SDS011;30591;48.228;16.398;2023-08-08T03:02:21;0.13;;;0.13;;
44854;SDS011;30591;48.228;16.398;2023-08-08T03:04:50;0.10;;;0.10;;
44854;SDS011;30591;48.228;16.398;2023-08-08T03:07:18;0.20;;;0.20;;
44854;SDS011;30591;48.228;16.398;2023-08-08T03:09:45;0.20;;;0.20;;
44854;SDS011;30591;48.228;16.398;2023-08-08T03:12:12;0.10;;;0.10;;
44854;SDS011;30591;48.228;16.398;2023-08-08T03:14:40;0.10;;;0.10;;
44854;SDS011;30591;48.228;16.398;2023-08-08T03:17:08;0.10;;;0.10;;
44854;SDS011;30591;48.228;16.398;2023-08-08T03:19:35;0.10;;;0.10;;
44854;SDS011;30591;48.228;16.398;2023-08-08T03:22:03;0.10;;;0.10;;
44854;SDS011;30591;48.228;16.398;2023-08-08T03:24:34;0.30;;;0.30;;
44854;SDS011;30591;48.228;16.398;2023-08-08T03:27:01;0.10;;;0.10;;
44854;SDS011;30591;48.228;16.398;2023-08-08T03:29:29;0.10;;;0.10;;
44854;SDS011;30591;48.228;16.398;2023-08-08T03:31:58;0.10;;;0.10;;
44854;SDS011;30591;48.228;16.398;2023-08-08T03:34:29;0.17;;;0.17;;
44854;SDS011;30591;48.228;16.398;2023-08-08T03:36:56;0.10;;;0.10;;
44854;SDS011;30591;48.228;16.398;2023-08-08T03:39:24;0.10;;;0.10;;
44854;SDS011;30591;48.228;16.398;2023-08-08T03:41:51;0.10;;;0.10;;
44854;SDS011;30591;48.228;16.398;2023-08-08T03:44:19;0.20;;;0.20;;
44854;SDS011;30591;48.228;16.398;2023-08-08T03:46:46;0.10;;;0.10;;
44854;SDS011;30591;48.228;16.398;2023-08-08T03:49:13;0.10;;;0.10;;
44854;SDS011;30591;48.228;16.398;2023-08-08T03:51:40;0.10;;;0.10;;
44854;SDS011;30591;48.228;16.398;2023-08-08T03:54:08;0.10;;;0.10;;
44854;SDS011;30591;48.228;16.398;2023-08-08T03:56:35;0.10;;;0.10;;
44854;SDS011;30591;48.228;16.398;2023-08-08T03:59:02;0.10;;;0.10;;
44854;SDS011;30591;48.228;16.398;2023-08-08T04:01:29;0.10;;;0.10;;
44854;SDS011;30591;48.228;16.398;2023-08-08T04:03:57;0.10;;;0.10;;
44854;SDS011;30591;48.228;16.398;2023-08-08T04:06:24;0.10;;;0.10;;
44854;SDS011;30591;48.228;16.398;2023-08-08T04:08:53;0.37;;;0.37;;
44854;SDS011;30591;48.228;16.398;2023-08-08T04:11:20;0.20;;;0.20;;
44854;SDS011;30591;48.228;16.398;2023-08-08T04:13:49;0.10;;;0.10;;
44854;SDS011;30591;48.228;16.398;2023-08-08T04:16:17;0.10;;;0.10;;
44854;SDS011;30591;48.228;16.398;2023-08-08T04:18:44;0.10;;;0.10;;
44854;SDS011;30591;48.228;16.398;2023-08-08T04:21:11;0.10;;;0.10;;
44854;SDS011;30591;48.228;16.398;2023-08-08T04:23:38;0.10;;;0.10;;
44854;SDS011;30591;48.228;16.398;2023-08-08T04:26:06;0.10;;;0.10;;
44854;SDS011;30591;48.228;16.398;2023-08-08T04:28:33;0.10;;;0.10;;
44854;SDS011;30591;48.228;16.398;2023-08-08T04:31:00;0.10;;;0.10;;
44854;SDS011;30591;48.228;16.398;2023-08-08T04:33:27;0.10;;;0.10;;
44854;SDS011;30591;48.228;16.398;2023-08-08T04:35:55;0.10;;;0.10;;
44854;SDS011;30591;48.228;16.398;2023-08-08T04:38:22;0.20;;;0.20;;
44854;SDS011;30591;48.228;16.398;2023-08-08T04:40:49;0.10;;;0.10;;
44854;SDS011;30591;48.228;16.398;2023-08-08T04:43:16;0.10;;;0.10;;
44854;SDS011;30591;48.228;16.398;2023-08-08T04:45:44;0.20;;;0.20;;
44854;SDS011;30591;48.228;16.398;2023-08-08T04:48:11;0.10;;;0.10;;
44854;SDS011;30591;48.228;16.398;2023-08-08T04:50:38;0.20;;;0.20;;
44854;SDS011;30591;48.228;16.398;2023-08-08T04:53:07;0.10;;;0.10;;
44854;SDS011;30591;48.228;16.398;2023-08-08T04:55:34;0.17;;;0.17;;
44854;SDS011;30591;48.228;16.398;2023-08-08T04:58:02;0.20;;;0.20;;
44854;SDS011;30591;48.228;16.398;2023-08-08T05:00:29;0.10;;;0.10;;
44854;SDS011;30591;48.228;16.398;2023-08-08T05:02:56;0.10;;;0.10;;
44854;SDS011;30591;48.228;16.398;2023-08-08T05:05:24;0.10;;;0.10;;
44854;SDS011;30591;48.228;16.398;2023-08-08T05:07:51;0.43;;;0.43;;
44854;SDS011;30591;48.228;16.398;2023-08-08T05:10:18;0.30;;;0.30;;
44854;SDS011;30591;48.228;16.398;2023-08-08T05:12:46;0.10;;;0.10;;
44854;SDS011;30591;48.228;16.398;2023-08-08T05:15:13;0.10;;;0.10;;
44854;SDS011;30591;48.228;16.398;2023-08-08T05:17:40;0.10;;;0.10;;
44854;SDS011;30591;48.228;16.398;2023-08-08T05:20:08;0.10;;;0.10;;
44854;SDS011;30591;48.228;16.398;2023-08-08T05:22:37;0.10;;;0.10;;
44854;SDS011;30591;48.228;16.398;2023-08-08T05:25:04;0.43;;;0.43;;
44854;SDS011;30591;48.228;16.398;2023-08-08T05:27:32;0.10;;;0.10;;
44854;SDS011;30591;48.228;16.398;2023-08-08T05:30:00;0.10;;;0.10;;
44854;SDS011;30591;48.228;16.398;2023-08-08T05:32:27;0.40;;;0.40;;
44854;SDS011;30591;48.228;16.398;2023-08-08T05:34:54;0.10;;;0.10;;
44854;SDS011;30591;48.228;16.398;2023-08-08T05:37:24;0.10;;;0.10;;
44854;SDS011;30591;48.228;16.398;2023-08-08T05:39:51;0.40;;;0.40;;
44854;SDS011;30591;48.228;16.398;2023-08-08T05:42:19;0.10;;;0.10;;
44854;SDS011;30591;48.228;16.398;2023-08-08T05:44:46;0.10;;;0.10;;
44854;SDS011;30591;48.228;16.398;2023-08-08T05:47:13;0.10;;;0.10;;
44854;SDS011;30591;48.228;16.398;2023-08-08T05:49:41;0.10;;;0.10;;
44854;SDS011;30591;48.228;16.398;2023-08-08T05:52:09;0.10;;;0.10;;
44854;SDS011;30591;48.228;16.398;2023-08-08T05:54:37;0.10;;;0.10;;
44854;SDS011;30591;48.228;16.398;2023-08-08T05:57:05;0.10;;;0.10;;
44854;SDS011;30591;48.228;16.398;2023-08-08T05:59:33;0.10;;;0.10;;
44854;SDS011;30591;48.228;16.398;2023-08-08T06:02:00;0.10;;;0.10;;
44854;SDS011;30591;48.228;16.398;2023-08-08T06:04:28;0.10;;;0.10;;
44854;SDS011;30591;48.228;16.398;2023-08-08T06:06:56;0.10;;;0.10;;
44854;SDS011;30591;48.228;16.398;2023-08-08T06:09:23;0.10;;;0.10;;
44854;SDS011;30591;48.228;16.398;2023-08-08T06:11:51;0.10;;;0.10;;
44854;SDS011;30591;48.228;16.398;2023-08-08T06:14:18;0.13;;;0.13;;
44854;SDS011;30591;48.228;16.398;2023-08-08T06:16:46;0.10;;;0.10;;
44854;SDS011;30591;48.228;16.398;2023-08-08T06:19:15;0.50;;;0.50;;
44854;SDS011;30591;48.228;16.398;2023-08-08T06:21:43;0.33;;;0.33;;
44854;SDS011;30591;48.228;16.398;2023-08-08T06:24:10;0.40;;;0.40;;
44854;SDS011;30591;48.228;16.398;2023-08-08T06:26:38;0.20;;;0.20;;
44854;SDS011;30591;48.228;16.398;2023-08-08T06:29:05;0.20;;;0.20;;
44854;SDS011;30591;48.228;16.398;2023-08-08T06:31:32;0.50;;;0.50;;
44854;SDS011;30591;48.228;16.398;2023-08-08T06:34:00;0.50;;;0.50;;
44854;SDS011;30591;48.228;16.398;2023-08-08T06:36:28;0.40;;;0.40;;
44854;SDS011;30591;48.228;16.398;2023-08-08T06:38:55;0.13;;;0.13;;
44854;SDS011;30591;48.228;16.398;2023-08-08T06:41:22;0.30;;;0.30;;
44854;SDS011;30591;48.228;16.398;2023-08-08T06:43:50;0.20;;;0.20;;
44854;SDS011;30591;48.228;16.398;2023-08-08T06:46:18;0.10;;;0.10;;
44854;SDS011;30591;48.228;16.398;2023-08-08T06:48:47;0.22;;;0.22;;
44854;SDS011;30591;48.228;16.398;2023-08-08T06:51:14;0.20;;;0.20;;
44854;SDS011;30591;48.228;16.398;2023-08-08T06:53:42;0.10;;;0.10;;
44854;SDS011;30591;48.228;16.398;2023-08-08T06:56:09;0.20;;;0.20;;
44854;SDS011;30591;48.228;16.398;2023-08-08T06:58:36;0.20;;;0.20;;
44854;SDS011;30591;48.228;16.398;2023-08-08T07:01:04;0.20;;;0.20;;
44854;SDS011;30591;48.228;16.398;2023-08-08T07:03:31;0.20;;;0.20;;
44854;SDS011;30591;48.228;16.398;2023-08-08T07:05:59;0.50;;;0.50;;
44854;SDS011;30591;48.228;16.398;2023-08-08T07:08:27;0.20;;;0.20;;
44854;SDS011;30591;48.228;16.398;2023-08-08T07:10:59;0.20;;;0.20;;
44854;SDS011;30591;48.228;16.398;2023-08-08T07:13:26;0.13;;;0.13;;
44854;SDS011;30591;48.228;16.398;2023-08-08T07:15:54;0.20;;;0.20;;
44854;SDS011;30591;48.228;16.398;2023-08-08T07:18:21;0.20;;;0.20;;
44854;SDS011;30591;48.228;16.398;2023-08-08T07:20:49;0.20;;;0.20;;
44854;SDS011;30591;48.228;16.398;2023-08-08T07:23:16;0.10;;;0.10;;
44854;SDS011;30591;48.228;16.398;2023-08-08T07:25:45;0.20;;;0.20;;
44854;SDS011;30591;48.228;16.398;2023-08-08T07:28:16;0.10;;;0.10;;
44854;SDS011;30591;48.228;16.398;2023-08-08T07:30:43;0.30;;;0.30;;
44854;SDS011;30591;48.228;16.398;2023-08-08T07:33:10;0.20;;;0.20;;
44854;SDS011;30591;48.228;16.398;2023-08-08T07:35:38;0.10;;;0.10;;
44854;SDS011;30591;48.228;16.398;2023-08-08T07:38:05;0.17;;;0.17;;
44854;SDS011;30591;48.228;16.398;2023-08-08T07:40:33;0.17;;;0.17;;
44854;SDS011;30591;48.228;16.398;2023-08-08T07:43:00;0.20;;;0.20;;
44854;SDS011;30591;48.228;16.398;2023-08-08T07:45:27;0.20;;;0.20;;
44854;SDS011;30591;48.228;16.398;2023-08-08T07:47:54;0.20;;;0.20;;
44854;SDS011;30591;48.228;16.398;2023-08-08T07:50:22;0.10;;;0.10;;
44854;SDS011;30591;48.228;16.398;2023-08-08T07:52:49;0.10;;;0.10;;
44854;SDS011;30591;48.228;16.398;2023-08-08T07:55:16;0.10;;;0.10;;
44854;SDS011;30591;48.228;16.398;2023-08-08T07:57:44;0.10;;;0.10;;
44854;SDS011;30591;48.228;16.398;2023-08-08T08:00:12;0.17;;;0.17;;
44854;SDS011;30591;48.228;16.398;2023-08-08T08:02:40;0.10;;;0.10;;
44854;SDS011;30591;48.228;16.398;2023-08-08T08:05:09;0.20;;;0.20;;
44854;SDS011;30591;48.228;16.398;2023-08-08T08:07:37;0.20;;;0.20;;
44854;SDS011;30591;48.228;16.398;2023-08-08T08:10:06;0.20;;;0.20;;
44854;SDS011;30591;48.228;16.398;2023-08-08T08:12:36;0.40;;;0.40;;
44854;SDS011;30591;48.228;16.398;2023-08-08T08:15:05;0.20;;;0.20;;
44854;SDS011;30591;48.228;16.398;2023-08-08T08:17:33;0.30;;;0.30;;
44854;SDS011;30591;48.228;16.398;2023-08-08T08:20:00;0.20;;;0.20;;
44854;SDS011;30591;48.228;16.398;2023-08-08T08:22:32;0.20;;;0.20;;
44854;SDS011;30591;48.228;16.398;2023-08-08T08:24:59;0.17;;;0.17;;
44854;SDS011;30591;48.228;16.398;2023-08-08T08:27:27;0.20;;;0.20;;
44854;SDS011;30591;48.228;16.398;2023-08-08T08:29:54;0.10;;;0.10;;
44854;SDS011;30591;48.228;16.398;2023-08-08T08:32:21;0.20;;;0.20;;
44854;SDS011;30591;48.228;16.398;2023-08-08T08:34:49;0.20;;;0.20;;
44854;SDS011;30591;48.228;16.398;2023-08-08T08:37:16;0.20;;;0.20;;
44854;SDS011;30591;48.228;16.398;2023-08-08T08:39:43;0.60;;;0.60;;
44854;SDS011;30591;48.228;16.398;2023-08-08T08:42:11;0.20;;;0.20;;
44854;SDS011;30591;48.228;16.398;2023-08-08T08:44:43;0.20;;;0.20;;
44854;SDS011;30591;48.228;16.398;2023-08-08T08:47:12;0.20;;;0.20;;
44854;SDS011;30591;48.228;16.398;2023-08-08T08:49:42;0.20;;;0.20;;
44854;SDS011;30591;48.228;16.398;2023-08-08T08:52:12;0.10;;;0.10;;
44854;SDS011;30591;48.228;16.398;2023-08-08T08:54:40;0.20;;;0.20;;
44854;SDS011;30591;48.228;16.398;2023-08-08T08:57:09;0.20;;;0.20;;
44854;SDS011;30591;48.228;16.398;2023-08-08T08:59:37;0.30;;;0.30;;
44854;SDS011;30591;48.228;16.398;2023-08-08T09:02:04;0.13;;;0.13;;
44854;SDS011;30591;48.228;16.398;2023-08-08T09:04:33;0.45;;;0.45;;
44854;SDS011;30591;48.228;16.398;2023-08-08T09:07:01;0.22;;;0.22;;
44854;SDS011;30591;48.228;16.398;2023-08-08T09:09:32;0.20;;;0.20;;
44854;SDS011;30591;48.228;16.398;2023-08-08T09:12:00;0.13;;;0.13;;
44854;SDS011;30591;48.228;16.398;2023-08-08T09:14:30;0.20;;;0.20;;
44854;SDS011;30591;48.228;16.398;2023-08-08T09:16:58;0.20;;;0.20;;
44854;SDS011;30591;48.228;16.398;2023-08-08T09:19:25;0.20;;;0.20;;
44854;SDS011;30591;48.228;16.398;2023-08-08T09:21:53;0.55;;;0.55;;
44854;SDS011;30591;48.228;16.398;2023-08-08T09:24:20;0.65;;;0.65;;
44854;SDS011;30591;48.228;16.398;2023-08-08T09:26:48;0.10;;;0.10;;
44854;SDS011;30591;48.228;16.398;2023-08-08T09:29:15;0.10;;;0.10;;
44854;SDS011;30591;48.228;16.398;2023-08-08T09:31:42;0.20;;;0.20;;
44854;SDS011;30591;48.228;16.398;2023-08-08T09:34:12;0.20;;;0.20;;
44854;SDS011;30591;48.228;16.398;2023-08-08T09:36:40;0.20;;;0.20;;
44854;SDS011;30591;48.228;16.398;2023-08-08T09:39:08;0.20;;;0.20;;
44854;SDS011;30591;48.228;16.398;2023-08-08T09:41:35;0.20;;;0.20;;
44854;SDS011;30591;48.228;16.398;2023-08-08T09:44:03;0.20;;;0.20;;
44854;SDS011;30591;48.228;16.398;2023-08-08T09:46:30;0.13;;;0.13;;
44854;SDS011;30591;48.228;16.398;2023-08-08T09:48:58;0.40;;;0.40;;
44854;SDS011;30591;48.228;16.398;2023-08-08T09:51:27;0.20;;;0.20;;
44854;SDS011;30591;48.228;16.398;2023-08-08T09:53:55;0.20;;;0.20;;
44854;SDS011;30591;48.228;16.398;2023-08-08T09:56:23;0.20;;;0.20;;
44854;SDS011;30591;48.228;16.398;2023-08-08T09:58:52;0.20;;;0.20;;
44854;SDS011;30591;48.228;16.398;2023-08-08T10:01:20;1.45;;;0.50;;
44854;SDS011;30591;48.228;16.398;2023-08-08T10:03:50;0.20;;;0.20;;
44854;SDS011;30591;48.228;16.398;2023-08-08T10:06:19;0.20;;;0.20;;
44854;SDS011;30591;48.228;16.398;2023-08-08T10:08:47;0.10;;;0.10;;
44854;SDS011;30591;48.228;16.398;2023-08-08T10:11:14;0.20;;;0.20;;
44854;SDS011;30591;48.228;16.398;2023-08-08T10:13:48;0.15;;;0.15;;
44854;SDS011;30591;48.228;16.398;2023-08-08T10:16:17;0.20;;;0.20;;
44854;SDS011;30591;48.228;16.398;2023-08-08T10:18:46;0.20;;;0.20;;
44854;SDS011;30591;48.228;16.398;2023-08-08T10:21:25;0.10;;;0.10;;
44854;SDS011;30591;48.228;16.398;2023-08-08T10:24:03;0.10;;;0.10;;
44854;SDS011;30591;48.228;16.398;2023-08-08T10:26:50;0.20;;;0.20;;
44854;SDS011;30591;48.228;16.398;2023-08-08T10:29:19;0.10;;;0.10;;
44854;SDS011;30591;48.228;16.398;2023-08-08T10:31:54;0.20;;;0.20;;
44854;SDS011;30591;48.228;16.398;2023-08-08T10:34:27;0.20;;;0.20;;
44854;SDS011;30591;48.228;16.398;2023-08-08T10:37:08;0.38;;;0.38;;
44854;SDS011;30591;48.228;16.398;2023-08-08T10:39:55;0.28;;;0.28;;
44854;SDS011;30591;48.228;16.398;2023-08-08T10:42:27;0.17;;;0.17;;
44854;SDS011;30591;48.228;16.398;2023-08-08T10:44:56;0.30;;;0.30;;
44854;SDS011;30591;48.228;16.398;2023-08-08T10:47:26;0.10;;;0.10;;
44854;SDS011;30591;48.228;16.398;2023-08-08T10:50:10;0.25;;;0.25;;
44854;SDS011;30591;48.228;16.398;2023-08-08T10:55:20;0.20;;;0.20;;
44854;SDS011;30591;48.228;16.398;2023-08-08T10:57:57;0.20;;;0.20;;
44854;SDS011;30591;48.228;16.398;2023-08-08T11:00:30;0.10;;;0.10;;
44854;SDS011;30591;48.228;16.398;2023-08-08T11:02:59;0.20;;;0.20;;
44854;SDS011;30591;48.228;16.398;2023-08-08T11:05:29;0.20;;;0.20;;
44854;SDS011;30591;48.228;16.398;2023-08-08T11:07:59;0.20;;;0.20;;
44854;SDS011;30591;48.228;16.398;2023-08-08T11:10:27;0.43;;;0.43;;
44854;SDS011;30591;48.228;16.398;2023-08-08T11:12:59;0.25;;;0.25;;
44854;SDS011;30591;48.228;16.398;2023-08-08T11:15:34;0.15;;;0.15;;
44854;SDS011;30591;48.228;16.398;2023-08-08T11:18:04;0.20;;;0.20;;
44854;SDS011;30591;48.228;16.398;2023-08-08T11:20:33;0.20;;;0.20;;
44854;SDS011;30591;48.228;16.398;2023-08-08T11:23:02;0.20;;;0.20;;
44854;SDS011;30591;48.228;16.398;2023-08-08T11:25:39;0.10;;;0.10;;
44854;SDS011;30591;48.228;16.398;2023-08-08T11:28:10;0.20;;;0.20;;
44854;SDS011;30591;48.228;16.398;2023-08-08T11:30:39;0.20;;;0.20;;
44854;SDS011;30591;48.228;16.398;2023-08-08T11:33:12;0.20;;;0.20;;
44854;SDS011;30591;48.228;16.398;2023-08-08T11:35:45;0.30;;;0.30;;
44854;SDS011;30591;48.228;16.398;2023-08-08T11:38:13;0.35;;;0.35;;
44854;SDS011;30591;48.228;16.398;2023-08-08T11:40:41;0.10;;;0.10;;
44854;SDS011;30591;48.228;16.398;2023-08-08T11:43:10;0.20;;;0.20;;
44854;SDS011;30591;48.228;16.398;2023-08-08T11:45:38;0.30;;;0.30;;
44854;SDS011;30591;48.228;16.398;2023-08-08T11:48:07;0.20;;;0.20;;
44854;SDS011;30591;48.228;16.398;2023-08-08T11:50:37;0.20;;;0.20;;
44854;SDS011;30591;48.228;16.398;2023-08-08T11:53:07;0.10;;;0.10;;
44854;SDS011;30591;48.228;16.398;2023-08-08T11:55:34;0.20;;;0.20;;
44854;SDS011;30591;48.228;16.398;2023-08-08T11:58:03;0.20;;;0.20;;
44854;SDS011;30591;48.228;16.398;2023-08-08T12:00:32;0.20;;;0.20;;
44854;SDS011;30591;48.228;16.398;2023-08-08T12:03:00;0.20;;;0.20;;
44854;SDS011;30591;48.228;16.398;2023-08-08T12:05:35;0.70;;;0.38;;
44854;SDS011;30591;48.228;16.398;2023-08-08T12:08:06;0.20;;;0.20;;
44854;SDS011;30591;48.228;16.398;2023-08-08T12:10:37;0.28;;;0.28;;
44854;SDS011;30591;48.228;16.398;2023-08-08T12:13:05;0.43;;;0.43;;
44854;SDS011;30591;48.228;16.398;2023-08-08T12:15:36;0.15;;;0.15;;
44854;SDS011;30591;48.228;16.398;2023-08-08T12:18:03;0.10;;;0.10;;
44854;SDS011;30591;48.228;16.398;2023-08-08T12:20:31;0.20;;;0.20;;
44854;SDS011;30591;48.228;16.398;2023-08-08T12:22:59;0.10;;;0.10;;
44854;SDS011;30591;48.228;16.398;2023-08-08T12:25:26;0.45;;;0.45;;
44854;SDS011;30591;48.228;16.398;2023-08-08T12:27:54;0.20;;;0.20;;
44854;SDS011;30591;48.228;16.398;2023-08-08T12:30:21;0.20;;;0.20;;
44854;SDS011;30591;48.228;16.398;2023-08-08T12:32:49;0.20;;;0.20;;
44854;SDS011;30591;48.228;16.398;2023-08-08T12:35:16;0.20;;;0.20;;
44854;SDS011;30591;48.228;16.398;2023-08-08T12:37:44;0.40;;;0.40;;
44854;SDS011;30591;48.228;16.398;2023-08-08T12:40:11;0.20;;;0.20;;
44854;SDS011;30591;48.228;16.398;2023-08-08T12:42:39;0.30;;;0.30;;
44854;SDS011;30591;48.228;16.398;2023-08-08T12:45:07;0.38;;;0.38;;
44854;SDS011;30591;48.228;16.398;2023-08-08T12:47:36;0.70;;;0.70;;
44854;SDS011;30591;48.228;16.398;2023-08-08T12:50:04;0.40;;;0.40;;
44854;SDS011;30591;48.228;16.398;2023-08-08T12:52:33;0.40;;;0.40;;
44854;SDS011;30591;48.228;16.398;2023-08-08T12:55:01;0.40;;;0.40;;
44854;SDS011;30591;48.228;16.398;2023-08-08T12:57:29;0.40;;;0.40;;
44854;SDS011;30591;48.228;16.398;2023-08-08T12:59:57;0.30;;;0.30;;
44854;SDS011;30591;48.228;16.398;2023-08-08T13:02:24;0.30;;;0.30;;
44854;SDS011;30591;48.228;16.398;2023-08-08T13:04:52;0.40;;;0.40;;
44854;SDS011;30591;48.228;16.398;2023-08-08T13:07:19;0.40;;;0.40;;
44854;SDS011;30591;48.228;16.398;2023-08-08T13:09:47;0.20;;;0.20;;
44854;SDS011;30591;48.228;16.398;2023-08-08T13:12:14;0.20;;;0.20;;
44854;SDS011;30591;48.228;16.398;2023-08-08T13:14:41;0.13;;;0.13;;
44854;SDS011;30591;48.228;16.398;2023-08-08T13:17:08;0.10;;;0.10;;
44854;SDS011;30591;48.228;16.398;2023-08-08T13:19:37;0.10;;;0.10;;
44854;SDS011;30591;48.228;16.398;2023-08-08T13:22:04;0.10;;;0.10;;
44854;SDS011;30591;48.228;16.398;2023-08-08T13:24:31;0.10;;;0.10;;
44854;SDS011;30591;48.228;16.398;2023-08-08T13:26:59;0.10;;;0.10;;
44854;SDS011;30591;48.228;16.398;2023-08-08T13:29:27;0.30;;;0.30;;
44854;SDS011;30591;48.228;16.398;2023-08-08T13:31:55;0.47;;;0.30;;
44854;SDS011;30591;48.228;16.398;2023-08-08T13:34:22;0.10;;;0.10;;
44854;SDS011;30591;48.228;16.398;2023-08-08T13:36:49;0.17;;;0.17;;
44854;SDS011;30591;48.228;16.398;2023-08-08T13:39:16;0.20;;;0.20;;
44854;SDS011;30591;48.228;16.398;2023-08-08T13:41:44;0.30;;;0.30;;
44854;SDS011;30591;48.228;16.398;2023-08-08T13:44:11;0.20;;;0.20;;
44854;SDS011;30591;48.228;16.398;2023-08-08T13:46:39;0.30;;;0.30;;
44854;SDS011;30591;48.228;16.398;2023-08-08T13:49:06;0.30;;;0.30;;
44854;SDS011;30591;48.228;16.398;2023-08-08T13:51:33;0.30;;;0.30;;
44854;SDS011;30591;48.228;16.398;2023-08-08T13:54:01;0.30;;;0.30;;
44854;SDS011;30591;48.228;16.398;2023-08-08T13:56:28;0.32;;;0.32;;
44854;SDS011;30591;48.228;16.398;2023-08-08T13:58:55;0.20;;;0.20;;
44854;SDS011;30591;48.228;16.398;2023-08-08T14:01:23;0.20;;;0.20;;
44854;SDS011;30591;48.228;16.398;2023-08-08T14:03:50;0.30;;;0.30;;
44854;SDS011;30591;48.228;16.398;2023-08-08T14:06:19;0.40;;;0.40;;
44854;SDS011;30591;48.228;16.398;2023-08-08T14:08:46;0.50;;;0.50;;
44854;SDS011;30591;48.228;16.398;2023-08-08T14:11:14;0.50;;;0.50;;
44854;SDS011;30591;48.228;16.398;2023-08-08T14:13:42;0.70;;;0.70;;
44854;SDS011;30591;48.228;16.398;2023-08-08T14:16:09;0.90;;;0.90;;
44854;SDS011;30591;48.228;16.398;2023-08-08T14:18:36;0.90;;;0.90;;
44854;SDS011;30591;48.228;16.398;2023-08-08T14:21:04;1.20;;;1.20;;
44854;SDS011;30591;48.228;16.398;2023-08-08T14:23:32;1.10;;;1.10;;
44854;SDS011;30591;48.228;16.398;2023-08-08T14:25:59;0.95;;;0.95;;
44854;SDS011;30591;48.228;16.398;2023-08-08T14:28:27;0.70;;;0.70;;
44854;SDS011;30591;48.228;16.398;2023-08-08T14:30:55;0.70;;;0.70;;
44854;SDS011;30591;48.228;16.398;2023-08-08T14:33:22;0.50;;;0.50;;
44854;SDS011;30591;48.228;16.398;2023-08-08T14:35:50;0.30;;;0.30;;
44854;SDS011;30591;48.228;16.398;2023-08-08T14:38:17;0.20;;;0.20;;
44854;SDS011;30591;48.228;16.398;2023-08-08T14:40:45;0.40;;;0.40;;
44854;SDS011;30591;48.228;16.398;2023-08-08T14:43:12;0.38;;;0.38;;
44854;SDS011;30591;48.228;16.398;2023-08-08T14:45:40;0.20;;;0.20;;